Terminal Aerodrome Forecast
Issued by NWS Wilmington, OH

Current Version | Previous Version | Text Only | Print | Product List | Glossary Off
Versions: 1 2 3 4 5 6 7 8 9 10 11 12 13 14 15 16 17 18 19 20 21 22 23 24 25 26 27 28 29 30 31 32

000
FTUS41 KILN 150345 AAA
TAFCVG
TAF AMD
KCVG 150345Z 1504/1606 34005KT 5SM BR OVC005
     FM150600 35004KT 5SM BR OVC008
     FM150900 01004KT P6SM OVC012
     FM151300 04005KT P6SM OVC025
     FM151600 06006KT P6SM OVC040=

USA.gov is the U.S. government's official web portal to all federal, state and local government web resources and services.